Time,TemperatureF,DewpointF,PressureIn,WindDirection,WindDirectionDegrees,WindSpeedMPH,WindSpeedGustMPH,Humidity,HourlyPrecipIn,Conditions,Clouds,dailyrainin,SoftwareType,DateUTC
2013-03-23 00:03:00,27.0,14.0,-100.00,North,-999,0.0,-999.0,57,0.00,,,0.00,,2013-03-23 04:03:00,
2013-03-23 00:13:00,27.0,14.0,-100.00,North,-999,0.0,-999.0,57,0.00,,,0.00,,2013-03-23 04:13:00,
2013-03-23 00:23:00,27.0,14.0,-100.00,North,-999,0.0,-999.0,57,0.00,,,0.00,,2013-03-23 04:23:00,
2013-03-23 00:32:00,27.0,14.0,-100.00,North,-999,0.0,-999.0,57,0.00,,,0.00,,2013-03-23 04:32:00,
2013-03-23 00:43:00,27.0,14.0,-100.00,North,-999,0.0,-999.0,57,0.00,,,0.00,,2013-03-23 04:43:00,
2013-03-23 01:02:00,27.0,14.0,-100.00,North,-999,0.0,-999.0,57,0.00,,,0.00,,2013-03-23 05:02:00,
2013-03-23 01:12:00,27.0,14.0,-100.00,North,-999,0.0,-999.0,57,0.00,,,0.00,,2013-03-23 05:12:00,
2013-03-23 01:22:00,27.0,14.0,-100.00,North,-999,0.0,-999.0,57,0.00,,,0.00,,2013-03-23 05:22:00,
2013-03-23 01:32:00,27.0,14.0,-100.00,North,-999,0.0,-999.0,57,0.00,,,0.00,,2013-03-23 05:32:00,
2013-03-23 01:42:00,27.0,14.0,-100.00,North,-999,0.0,-999.0,57,0.00,,,0.00,,2013-03-23 05:42:00,
2013-03-23 02:02:00,28.0,17.0,-100.00,North,-999,0.0,-999.0,62,0.00,,,0.00,,2013-03-23 06:02:00,
2013-03-23 02:12:00,28.0,17.0,-100.00,North,-999,0.0,-999.0,62,0.00,,,0.00,,2013-03-23 06:12:00,
2013-03-23 02:22:00,28.0,17.0,-100.00,North,-999,0.0,-999.0,62,0.00,,,0.00,,2013-03-23 06:22:00,
2013-03-23 02:32:00,28.0,17.0,-100.00,North,-999,0.0,-999.0,62,0.00,,,0.00,,2013-03-23 06:32:00,
2013-03-23 02:42:00,28.0,17.0,-100.00,North,-999,0.0,-999.0,62,0.00,,,0.00,,2013-03-23 06:42:00,
2013-03-23 04:03:00,25.0,16.0,-100.00,North,-999,0.0,-999.0,67,-99.99,,,0.00,,2013-03-23 08:03:00,
2013-03-23 04:13:00,25.0,16.0,-100.00,North,-999,0.0,-999.0,67,-99.99,,,0.00,,2013-03-23 08:13:00,
2013-03-23 04:22:00,25.0,16.0,-100.00,North,-999,0.0,-999.0,67,-99.99,,,0.00,,2013-03-23 08:22:00,
2013-03-23 04:32:00,25.0,16.0,-100.00,North,-999,0.0,-999.0,67,-99.99,,,0.00,,2013-03-23 08:32:00,
2013-03-23 04:42:00,25.0,16.0,-100.00,North,-999,0.0,-999.0,67,-99.99,,,0.00,,2013-03-23 08:42:00,
2013-03-23 05:02:00,24.0,16.0,-100.00,North,1,0.0,-999.0,70,0.00,,,0.00,,2013-03-23 09:02:00,
2013-03-23 05:12:00,24.0,16.0,-100.00,North,1,0.0,-999.0,70,0.00,,,0.00,,2013-03-23 09:12:00,
2013-03-23 05:22:00,24.0,16.0,-100.00,North,1,0.0,-999.0,70,0.00,,,0.00,,2013-03-23 09:22:00,
2013-03-23 05:33:00,24.0,16.0,-100.00,North,1,0.0,-999.0,70,0.00,,,0.00,,2013-03-23 09:33:00,
2013-03-23 05:43:00,24.0,16.0,-100.00,North,1,0.0,-999.0,70,0.00,,,0.00,,2013-03-23 09:43:00,
2013-03-23 06:03:00,25.0,16.0,-100.00,North,-999,0.0,-999.0,69,0.00,,,0.00,,2013-03-23 10:03:00,
2013-03-23 06:13:00,25.0,16.0,-100.00,North,-999,0.0,-999.0,69,0.00,,,0.00,,2013-03-23 10:13:00,
2013-03-23 06:24:00,25.0,16.0,-100.00,North,-999,0.0,-999.0,69,0.00,,,0.00,,2013-03-23 10:24:00,
2013-03-23 06:34:00,25.0,16.0,-100.00,North,-999,0.0,-999.0,69,0.00,,,0.00,,2013-03-23 10:34:00,
2013-03-23 06:43:00,25.0,16.0,-100.00,North,-999,0.0,-999.0,69,0.00,,,0.00,,2013-03-23 10:43:00,
2013-03-23 07:03:00,26.0,18.0,-100.00,North,-999,0.0,-999.0,70,0.00,,,0.00,,2013-03-23 11:03:00,
2013-03-23 07:12:00,26.0,18.0,-100.00,North,-999,0.0,-999.0,70,0.00,,,0.00,,2013-03-23 11:12:00,
2013-03-23 07:22:00,26.0,18.0,-100.00,North,-999,0.0,-999.0,70,0.00,,,0.00,,2013-03-23 11:22:00,
2013-03-23 07:32:00,26.0,18.0,-100.00,North,-999,0.0,-999.0,70,0.00,,,0.00,,2013-03-23 11:32:00,
2013-03-23 07:42:00,26.0,18.0,-100.00,North,-999,0.0,-999.0,70,0.00,,,0.00,,2013-03-23 11:42:00,
2013-03-23 08:02:00,27.0,19.0,-100.00,North,-999,0.0,-999.0,70,0.00,,,0.00,,2013-03-23 12:02:00,
2013-03-23 08:13:00,27.0,19.0,-100.00,North,-999,0.0,-999.0,70,0.00,,,0.00,,2013-03-23 12:13:00,
2013-03-23 08:22:00,27.0,19.0,-100.00,North,-999,0.0,-999.0,70,0.00,,,0.00,,2013-03-23 12:22:00,
2013-03-23 08:33:00,27.0,19.0,-100.00,North,-999,0.0,-999.0,70,0.00,,,0.00,,2013-03-23 12:33:00,
2013-03-23 08:42:00,27.0,19.0,-100.00,North,-999,0.0,-999.0,70,0.00,,,0.00,,2013-03-23 12:42:00,
2013-03-23 09:03:00,29.0,19.0,-100.00,North,1,0.0,-999.0,66,0.00,,,0.00,,2013-03-23 13:03:00,
2013-03-23 09:12:00,29.0,19.0,-100.00,North,1,0.0,-999.0,66,0.00,,,0.00,,2013-03-23 13:12:00,
2013-03-23 09:23:00,29.0,19.0,-100.00,North,1,0.0,-999.0,66,0.00,,,0.00,,2013-03-23 13:23:00,
2013-03-23 09:33:00,29.0,19.0,-100.00,North,1,0.0,-999.0,66,0.00,,,0.00,,2013-03-23 13:33:00,
2013-03-23 09:43:00,29.0,19.0,-100.00,North,1,0.0,-999.0,66,0.00,,,0.00,,2013-03-23 13:43:00,
2013-03-23 10:03:00,30.0,19.0,-100.00,North,-999,0.0,-999.0,62,0.00,,,0.00,,2013-03-23 14:03:00,
2013-03-23 10:12:00,30.0,19.0,-100.00,North,-999,0.0,-999.0,62,0.00,,,0.00,,2013-03-23 14:12:00,
2013-03-23 10:23:00,30.0,19.0,-100.00,North,-999,0.0,-999.0,62,0.00,,,0.00,,2013-03-23 14:23:00,
2013-03-23 10:33:00,30.0,19.0,-100.00,North,-999,0.0,-999.0,62,0.00,,,0.00,,2013-03-23 14:33:00,
2013-03-23 10:43:00,30.0,19.0,-100.00,North,-999,0.0,-999.0,62,0.00,,,0.00,,2013-03-23 14:43:00,
2013-03-23 11:04:00,32.0,18.0,-100.00,North,-999,0.0,-999.0,56,0.00,,,0.00,,2013-03-23 15:04:00,
2013-03-23 11:13:00,32.0,18.0,-100.00,North,-999,0.0,-999.0,56,0.00,,,0.00,,2013-03-23 15:13:00,
2013-03-23 11:22:00,32.0,18.0,-100.00,North,-999,0.0,-999.0,56,0.00,,,0.00,,2013-03-23 15:22:00,
2013-03-23 11:34:00,32.0,18.0,-100.00,North,-999,0.0,-999.0,56,0.00,,,0.00,,2013-03-23 15:34:00,
2013-03-23 11:44:00,32.0,18.0,-100.00,North,-999,0.0,-999.0,56,0.00,,,0.00,,2013-03-23 15:44:00,
2013-03-23 13:03:00,37.0,16.0,-100.00,North,-999,0.0,-999.0,43,-99.99,,,0.71,,2013-03-23 17:03:00,
2013-03-23 13:12:00,37.0,16.0,-100.00,North,-999,0.0,-999.0,43,-99.99,,,0.71,,2013-03-23 17:12:00,
2013-03-23 13:23:00,37.0,16.0,-100.00,North,-999,0.0,-999.0,43,-99.99,,,0.71,,2013-03-23 17:23:00,
2013-03-23 13:33:00,37.0,16.0,-100.00,North,-999,0.0,-999.0,43,-99.99,,,0.71,,2013-03-23 17:33:00,
2013-03-23 13:43:00,37.0,16.0,-100.00,North,-999,0.0,-999.0,43,-99.99,,,0.71,,2013-03-23 17:43:00,
2013-03-23 14:03:00,38.0,15.0,-100.00,North,-999,0.0,-999.0,39,0.11,,,0.82,,2013-03-23 18:03:00,
2013-03-23 14:12:00,38.0,15.0,-100.00,North,-999,0.0,-999.0,39,0.11,,,0.82,,2013-03-23 18:12:00,
2013-03-23 14:23:00,38.0,15.0,-100.00,North,-999,0.0,-999.0,39,0.11,,,0.82,,2013-03-23 18:23:00,
2013-03-23 14:32:00,38.0,15.0,-100.00,North,-999,0.0,-999.0,39,0.11,,,0.82,,2013-03-23 18:32:00,
2013-03-23 14:43:00,38.0,15.0,-100.00,North,-999,0.0,-999.0,39,0.11,,,0.82,,2013-03-23 18:43:00,
2013-03-23 15:03:00,39.0,15.0,-100.00,North,-999,0.0,-999.0,37,0.11,,,0.93,,2013-03-23 19:03:00,
2013-03-23 15:13:00,39.0,15.0,-100.00,North,-999,0.0,-999.0,37,0.11,,,0.93,,2013-03-23 19:13:00,
2013-03-23 15:23:00,39.0,15.0,-100.00,North,-999,0.0,-999.0,37,0.11,,,0.93,,2013-03-23 19:23:00,
2013-03-23 15:33:00,39.0,15.0,-100.00,North,-999,0.0,-999.0,37,0.11,,,0.93,,2013-03-23 19:33:00,
2013-03-23 15:42:00,39.0,15.0,-100.00,North,-999,0.0,-999.0,37,0.11,,,0.93,,2013-03-23 19:42:00,
2013-03-23 16:03:00,40.0,17.0,-100.00,North,-999,0.0,-999.0,40,0.45,,,1.38,,2013-03-23 20:03:00,
2013-03-23 16:13:00,40.0,17.0,-100.00,North,-999,0.0,-999.0,40,0.45,,,1.38,,2013-03-23 20:13:00,
2013-03-23 16:23:00,40.0,17.0,-100.00,North,-999,0.0,-999.0,40,0.45,,,1.38,,2013-03-23 20:23:00,
2013-03-23 16:32:00,40.0,17.0,-100.00,North,-999,0.0,-999.0,40,0.45,,,1.38,,2013-03-23 20:32:00,
2013-03-23 16:42:00,40.0,17.0,-100.00,North,-999,0.0,-999.0,40,0.45,,,1.38,,2013-03-23 20:42:00,
2013-03-23 18:03:00,36.0,20.0,-100.00,North,-999,0.0,-999.0,52,-99.99,,,-99.99,,2013-03-23 22:03:00,
2013-03-23 18:13:00,36.0,20.0,-100.00,North,-999,0.0,-999.0,52,-99.99,,,-99.99,,2013-03-23 22:13:00,
2013-03-23 18:23:00,36.0,20.0,-100.00,North,-999,0.0,-999.0,52,-99.99,,,-99.99,,2013-03-23 22:23:00,
2013-03-23 18:33:00,36.0,20.0,-100.00,North,-999,0.0,-999.0,52,-99.99,,,-99.99,,2013-03-23 22:33:00,
2013-03-23 18:42:00,36.0,20.0,-100.00,North,-999,0.0,-999.0,52,-99.99,,,-99.99,,2013-03-23 22:42:00,
2013-03-23 19:03:00,35.0,19.0,-100.00,North,-999,0.0,-999.0,52,0.00,,,1.42,,2013-03-23 23:03:00,
2013-03-23 19:13:00,35.0,19.0,-100.00,North,-999,0.0,-999.0,52,0.00,,,1.42,,2013-03-23 23:13:00,
2013-03-23 19:23:00,35.0,19.0,-100.00,North,-999,0.0,-999.0,52,0.00,,,1.42,,2013-03-23 23:23:00,
2013-03-23 19:33:00,35.0,19.0,-100.00,North,-999,0.0,-999.0,52,0.00,,,1.42,,2013-03-23 23:33:00,
2013-03-23 19:43:00,35.0,19.0,-100.00,North,-999,0.0,-999.0,52,0.00,,,1.42,,2013-03-23 23:43:00,
2013-03-23 20:02:00,34.0,20.0,-100.00,North,-999,0.0,-999.0,55,0.00,,,1.42,,2013-03-24 00:02:00,
2013-03-23 20:13:00,34.0,20.0,-100.00,North,-999,0.0,-999.0,55,0.00,,,1.42,,2013-03-24 00:13:00,
2013-03-23 20:23:00,34.0,20.0,-100.00,North,-999,0.0,-999.0,55,0.00,,,1.42,,2013-03-24 00:23:00,
2013-03-23 20:33:00,34.0,20.0,-100.00,North,-999,0.0,-999.0,55,0.00,,,1.42,,2013-03-24 00:33:00,
2013-03-23 20:42:00,34.0,20.0,-100.00,North,-999,0.0,-999.0,55,0.00,,,1.42,,2013-03-24 00:42:00,
2013-03-23 22:03:00,34.0,21.0,-100.00,North,-999,0.0,-999.0,58,-99.99,,,1.50,,2013-03-24 02:03:00,
2013-03-23 22:12:00,34.0,21.0,-100.00,North,-999,0.0,-999.0,58,-99.99,,,1.50,,2013-03-24 02:12:00,
2013-03-23 22:22:00,34.0,21.0,-100.00,North,-999,0.0,-999.0,58,-99.99,,,1.50,,2013-03-24 02:22:00,
2013-03-23 22:32:00,34.0,21.0,-100.00,North,-999,0.0,-999.0,58,-99.99,,,1.50,,2013-03-24 02:32:00,
2013-03-23 22:42:00,34.0,21.0,-100.00,North,-999,0.0,-999.0,58,-99.99,,,1.50,,2013-03-24 02:42:00,
2013-03-23 23:03:00,33.0,21.0,-100.00,North,-999,0.0,-999.0,61,0.00,,,1.50,,2013-03-24 03:03:00,
2013-03-23 23:13:00,33.0,21.0,-100.00,North,-999,0.0,-999.0,61,0.00,,,1.50,,2013-03-24 03:13:00,
2013-03-23 23:23:00,33.0,21.0,-100.00,North,-999,0.0,-999.0,61,0.00,,,1.50,,2013-03-24 03:23:00,
2013-03-23 23:33:00,33.0,21.0,-100.00,North,-999,0.0,-999.0,61,0.00,,,1.50,,2013-03-24 03:33:00,
2013-03-23 23:42:00,33.0,21.0,-100.00,North,-999,0.0,-999.0,61,0.00,,,1.50,,2013-03-24 03:42:00,